Time;durP1;ratioP1;P1;durP2;ratioP2;P2;SDS_P1;SDS_P2;PMS_P1;PMS_P2;Temp;Humidity;BMP_temperature;BMP_pressure;BME280_temperature;BME280_humidity;BME280_pressure;Samples;Min_cycle;Max_cycle;Signal;HPM_P1;HPM_P2
2021/11/10 00:02:22;;;;;;;;;40.50;36.00;;;;;7.58;78.06;102143.38;5060809;28;45170;-64
2021/11/10 00:04:48;;;;;;;;;42.50;36.50;;;;;7.60;78.28;102140.81;5061177;28;46171;-64
2021/11/10 00:07:13;;;;;;;;;43.25;34.50;;;;;7.60;78.33;102145.97;5061071;28;45240;-65
2021/11/10 00:09:38;;;;;;;;;45.25;36.75;;;;;7.59;78.13;102146.84;5061305;28;45178;-65
2021/11/10 00:12:04;;;;;;;;;45.75;38.75;;;;;7.58;78.27;102143.38;5061361;28;45251;-65
2021/11/10 00:14:30;;;;;;;;;47.50;40.25;;;;;7.58;78.08;102140.78;5060928;28;45364;-65
2021/11/10 00:16:56;;;;;;;;;52.25;41.00;;;;;7.56;78.26;102134.75;5060825;28;45309;-65
2021/11/10 00:19:23;;;;;;;;;44.75;39.00;;;;;7.54;78.12;102120.94;5060523;28;45423;-65
2021/11/10 00:21:48;;;;;;;;;47.50;39.25;;;;;7.53;78.47;102126.09;5061100;28;45529;-65
2021/11/10 00:24:14;;;;;;;;;49.25;40.75;;;;;7.51;78.40;102139.03;5050796;28;46217;-65
2021/11/10 00:26:39;;;;;;;;;55.50;41.75;;;;;7.47;78.13;102124.34;5060839;28;45426;-65
2021/11/10 00:29:05;;;;;;;;;47.75;36.75;;;;;7.46;78.76;102122.63;5061046;28;45993;-65
2021/11/10 00:31:30;;;;;;;;;49.50;39.50;;;;;7.43;78.51;102114.84;5060828;28;45454;-65
2021/11/10 00:33:55;;;;;;;;;50.50;38.25;;;;;7.40;78.38;102107.03;5060681;28;45232;-65
2021/11/10 00:36:21;;;;;;;;;45.00;36.00;;;;;7.35;78.41;102095.78;5061036;28;45302;-64
2021/11/10 00:38:46;;;;;;;;;44.50;33.25;;;;;7.32;78.99;102101.81;5059824;28;45291;-64
2021/11/10 00:41:12;;;;;;;;;46.00;38.00;;;;;7.28;78.42;102104.38;5063361;28;45395;-64
2021/11/10 00:43:37;;;;;;;;;44.00;34.50;;;;;7.22;79.05;102112.09;5064826;28;46241;-64
2021/11/10 00:46:03;;;;;;;;;42.75;36.75;;;;;7.23;79.20;102121.56;5057615;28;45312;-64
2021/11/10 00:48:28;;;;;;;;;44.75;38.00;;;;;7.18;79.22;102116.34;5059679;28;45813;-64
2021/11/10 00:50:54;;;;;;;;;42.25;35.50;;;;;7.19;79.32;102115.47;5060003;28;45236;-63
2021/11/10 00:53:19;;;;;;;;;48.00;40.25;;;;;7.17;79.22;102113.75;5054592;28;46117;-65
2021/11/10 00:55:46;;;;;;;;;54.00;41.25;;;;;7.15;79.61;102107.69;5059819;28;45484;-63
2021/11/10 00:58:11;;;;;;;;;36.50;35.25;;;;;7.13;79.16;102104.22;5059978;28;45397;-63
2021/11/10 01:00:38;;;;;;;;;50.75;41.75;;;;;7.14;79.46;102100.78;5057573;28;45491;-63
2021/11/10 01:03:04;;;;;;;;;44.00;39.25;;;;;7.13;79.60;102101.66;5058071;28;45461;-63
2021/11/10 01:05:30;;;;;;;;;48.50;41.75;;;;;7.09;79.52;102098.19;5057778;28;45928;-63
2021/11/10 01:07:56;;;;;;;;;55.50;42.00;;;;;7.10;79.75;102096.47;5058007;28;45454;-63
2021/11/10 01:10:23;;;;;;;;;50.50;39.50;;;;;7.09;80.02;102084.38;5058109;28;45341;-61
2021/11/10 01:12:50;;;;;;;;;61.50;47.50;;;;;7.07;81.79;102075.75;5058580;28;45427;-63
2021/11/10 01:15:16;;;;;;;;;56.50;47.00;;;;;6.99;81.81;102076.53;5060124;28;45720;-62
2021/11/10 01:17:42;;;;;;;;;57.00;47.50;;;;;6.90;82.40;102078.19;5059584;28;45261;-61
2021/11/10 01:20:12;;;;;;;;;49.25;43.00;;;;;6.83;83.79;102068.66;5060293;28;45307;-63
2021/11/10 01:22:38;;;;;;;;;61.25;43.50;;;;;6.74;81.88;102059.09;5060189;28;45339;-62
2021/11/10 01:25:06;;;;;;;;;60.50;46.50;;;;;6.78;82.23;102073.75;5048140;28;45378;-62
2021/11/10 01:27:32;;;;;;;;;67.50;49.00;;;;;6.78;82.38;102068.59;5060251;28;45298;-61
2021/11/10 01:29:57;;;;;;;;;55.00;46.25;;;;;6.75;82.01;102067.72;5060096;28;45390;-62
2021/11/10 01:32:22;;;;;;;;;62.75;50.00;;;;;6.73;81.96;102072.88;5059832;28;46458;-62
2021/11/10 01:34:48;;;;;;;;;58.50;49.25;;;;;6.75;81.82;102075.47;5060112;28;45345;-62
2021/11/10 01:37:13;;;;;;;;;59.75;45.00;;;;;6.74;81.51;102065.97;5058078;28;45335;-62
2021/11/10 01:39:39;;;;;;;;;64.75;49.00;;;;;6.73;81.77;102067.69;5059946;28;45310;-61
2021/11/10 01:42:05;;;;;;;;;58.00;45.50;;;;;6.69;81.98;102053.88;5070844;28;46017;-62
2021/11/10 01:44:38;;;;;;;;;58.00;45.25;;;;;6.74;81.45;102066.84;5058630;28;45181;-62
2021/11/10 01:47:07;;;;;;;;;61.00;44.00;;;;;6.72;81.81;102069.41;5058320;28;45398;-62
2021/11/10 01:49:32;;;;;;;;;56.50;41.25;;;;;6.72;81.87;102071.13;5059980;28;45248;-61
2021/11/10 01:51:59;;;;;;;;;57.25;45.00;;;;;6.69;81.94;102065.94;5059331;28;46078;-62
2021/11/10 01:54:29;;;;;;;;;61.50;46.25;;;;;6.71;81.87;102070.25;5053366;28;45353;-62
2021/11/10 01:56:54;;;;;;;;;62.75;45.75;;;;;6.68;81.64;102061.63;5059738;28;45314;-62
2021/11/10 01:59:40;;;;;;;;;57.50;46.00;;;;;6.68;81.93;102065.06;5059996;28;45295;-62
2021/11/10 02:02:22;;;;;;;;;54.00;43.00;;;;;6.66;81.56;102068.50;5057669;28;47719;-62
2021/11/10 02:04:49;;;;;;;;;56.50;44.75;;;;;6.66;81.95;102071.06;5059309;28;45655;-62
2021/11/10 02:07:16;;;;;;;;;53.25;44.50;;;;;6.67;81.71;102075.41;5059718;28;45421;-62
2021/11/10 02:09:43;;;;;;;;;64.75;48.00;;;;;6.67;81.80;102080.56;5059398;28;45279;-62
2021/11/10 02:12:09;;;;;;;;;61.00;45.50;;;;;6.65;82.00;102077.97;5059452;28;45539;-62
2021/11/10 02:14:34;;;;;;;;;57.50;46.50;;;;;6.64;81.62;102085.69;5059429;28;45410;-62
2021/11/10 02:16:59;;;;;;;;;48.25;40.25;;;;;6.63;81.78;102086.56;5059318;28;45488;-62
2021/11/10 02:19:25;;;;;;;;;54.00;43.00;;;;;6.59;81.28;102071.84;5058595;28;45428;-62
2021/11/10 02:21:54;;;;;;;;;50.00;42.25;;;;;6.59;81.07;102064.97;5059443;28;46326;-62
2021/11/10 02:24:22;;;;;;;;;57.50;43.00;;;;;6.56;81.13;102053.75;5046952;28;45537;-63
2021/11/10 02:26:48;;;;;;;;;51.50;43.75;;;;;6.51;81.36;102055.41;5059446;28;45302;-62
2021/11/10 02:29:16;;;;;;;;;58.75;44.75;;;;;6.46;80.85;102063.13;5059200;28;45498;-62
2021/11/10 02:31:44;;;;;;;;;57.25;41.75;;;;;6.43;80.97;102051.91;5058799;28;46103;-62
2021/11/10 02:34:09;;;;;;;;;48.25;39.75;;;;;6.37;81.75;102045.81;5059154;28;45342;-62
2021/11/10 02:36:35;;;;;;;;;55.00;43.00;;;;;6.35;81.80;102047.50;5059423;28;45284;-62
2021/11/10 02:39:05;;;;;;;;;57.25;41.75;;;;;6.33;81.82;102036.31;5059057;28;45398;-62
2021/11/10 02:41:31;;;;;;;;;59.75;43.00;;;;;6.32;81.95;102041.44;5067608;28;45366;-62
2021/11/10 02:43:57;;;;;;;;;53.75;44.25;;;;;6.27;81.96;102028.50;5060840;28;45421;-62
2021/11/10 02:46:23;;;;;;;;;59.00;43.50;;;;;6.28;82.19;102031.94;5057752;28;45335;-62
2021/11/10 02:48:49;;;;;;;;;56.00;40.00;;;;;6.27;82.45;102027.63;5059155;28;45327;-62
2021/11/10 02:51:14;;;;;;;;;43.25;36.50;;;;;6.22;82.90;102027.59;5061911;28;45440;-62
2021/11/10 02:53:41;;;;;;;;;46.25;38.25;;;;;6.21;83.01;102035.31;5055959;28;45425;-62
2021/11/10 02:56:08;;;;;;;;;47.25;40.00;;;;;6.18;82.79;102041.28;5062527;28;45217;-62
2021/11/10 02:58:34;;;;;;;;;39.50;31.25;;;;;6.16;83.15;102036.97;5062330;28;45310;-62
2021/11/10 03:01:00;;;;;;;;;44.00;37.50;;;;;6.16;82.92;102031.78;5062035;28;46336;-62
2021/11/10 03:03:25;;;;;;;;;44.50;40.50;;;;;6.15;82.42;102035.22;5062323;28;45316;-62
2021/11/10 03:05:52;;;;;;;;;47.00;39.00;;;;;6.06;82.30;102020.50;5062338;28;45721;-61
2021/11/10 03:08:19;;;;;;;;;45.50;36.75;;;;;6.12;82.50;102028.31;5061938;28;45405;-61
2021/11/10 03:10:45;;;;;;;;;46.00;39.00;;;;;6.04;82.14;102017.91;5061910;28;46778;-61
2021/11/10 03:13:11;;;;;;;;;50.25;39.25;;;;;6.06;82.27;102026.53;5062162;28;45818;-61
2021/11/10 03:15:37;;;;;;;;;49.00;37.25;;;;;6.03;82.66;102026.50;5062085;28;45260;-61
2021/11/10 03:18:03;;;;;;;;;45.50;40.00;;;;;6.00;82.23;102023.00;5061362;28;45548;-61
2021/11/10 03:20:29;;;;;;;;;55.00;41.25;;;;;5.94;82.38;102008.31;5062138;28;45386;-62
2021/11/10 03:22:55;;;;;;;;;42.50;35.00;;;;;5.97;82.76;102017.81;5061092;28;45321;-61
2021/11/10 03:25:20;;;;;;;;;44.75;39.00;;;;;5.94;82.52;102022.94;5050664;28;45462;-62
2021/11/10 03:27:45;;;;;;;;;38.75;33.50;;;;;5.94;82.66;102025.53;5062106;28;45415;-61
2021/11/10 03:30:11;;;;;;;;;50.50;40.00;;;;;5.93;83.04;102023.78;5061752;28;46064;-61
2021/11/10 03:32:36;;;;;;;;;41.25;38.75;;;;;5.88;83.10;102023.72;5061515;28;45418;-61
2021/11/10 03:35:02;;;;;;;;;47.50;40.75;;;;;5.84;83.14;102018.50;5062077;28;45315;-61
2021/11/10 03:37:27;;;;;;;;;41.00;35.00;;;;;5.81;83.09;102016.75;5060506;28;45474;-61
2021/11/10 03:39:53;;;;;;;;;49.33;39.00;;;;;5.82;82.55;102017.63;5061549;28;46602;-61
2021/11/10 03:42:18;;;;;;;;;46.25;36.75;;;;;5.77;82.61;102018.41;5072804;28;45432;-62
2021/11/10 03:44:44;;;;;;;;;51.50;40.25;;;;;5.77;82.63;102033.88;5060361;28;45326;-62
2021/11/10 03:47:09;;;;;;;;;47.00;40.50;;;;;5.74;82.50;102028.69;5060104;28;45515;-62
2021/11/10 03:49:35;;;;;;;;;45.25;40.75;;;;;5.67;83.00;102021.72;5060396;28;48118;-63
2021/11/10 03:52:00;;;;;;;;;54.50;44.25;;;;;5.68;82.59;102023.44;5061340;28;45425;-63
2021/11/10 03:54:26;;;;;;;;;47.25;39.75;;;;;5.66;83.28;102027.72;5055036;28;45220;-63
2021/11/10 03:56:51;;;;;;;;;51.00;39.75;;;;;5.67;83.53;102021.72;5061229;28;45168;-63
2021/11/10 03:59:16;;;;;;;;;47.75;42.00;;;;;5.66;83.42;102020.00;5054783;28;46065;-64
2021/11/10 04:01:42;;;;;;;;;47.50;41.00;;;;;5.67;83.35;102024.28;5050437;28;45275;-64
2021/11/10 04:04:07;;;;;;;;;53.50;42.25;;;;;5.66;83.96;102030.31;5052478;28;45225;-63
2021/11/10 04:06:33;;;;;;;;;39.25;28.25;;;;;5.65;83.48;102038.88;5050075;28;45341;-63
2021/11/10 04:08:59;;;;;;;;;54.75;45.25;;;;;5.66;83.03;102050.06;5050825;28;45547;-63
2021/11/10 04:11:25;;;;;;;;;53.75;42.25;;;;;5.66;83.17;102063.84;5051227;28;46515;-63
2021/11/10 04:13:51;;;;;;;;;60.50;45.50;;;;;5.64;83.29;102067.25;5052314;28;45582;-63
2021/11/10 04:16:20;;;;;;;;;48.75;43.00;;;;;5.68;83.60;102085.34;5055072;28;45576;-64
2021/11/10 04:18:49;;;;;;;;;62.25;49.50;;;;;5.70;84.17;102104.28;5060322;28;45490;-63
2021/11/10 04:21:14;;;;;;;;;59.00;46.50;;;;;5.70;84.31;102088.81;5060831;28;45861;-63
2021/11/10 04:23:40;;;;;;;;;51.50;45.25;;;;;5.74;84.25;102082.84;5054141;28;45147;-63
2021/11/10 04:26:05;;;;;;;;;60.00;45.25;;;;;5.75;83.94;102089.75;5055955;28;45478;-63
2021/11/10 04:28:31;;;;;;;;;54.00;44.00;;;;;5.74;83.82;102093.16;5055040;28;45336;-64
2021/11/10 04:30:57;;;;;;;;;60.50;46.00;;;;;5.76;83.56;102088.88;5055299;28;45262;-64
2021/11/10 04:33:22;;;;;;;;;64.00;50.75;;;;;5.75;84.03;102073.41;5052145;28;45253;-64
2021/11/10 04:35:49;;;;;;;;;67.50;51.25;;;;;5.80;83.96;102090.66;5050127;28;46379;-64
2021/11/10 04:38:14;;;;;;;;;66.00;46.50;;;;;5.82;84.04;102079.53;5051382;28;45376;-64
2021/11/10 04:40:40;;;;;;;;;59.50;48.00;;;;;5.83;84.02;102073.53;5060429;28;45469;-65
2021/11/10 04:43:05;;;;;;;;;65.75;50.25;;;;;5.81;84.15;102068.34;5071531;28;45370;-63
2021/11/10 04:45:36;;;;;;;;;60.25;47.25;;;;;5.83;83.92;102068.34;5057475;28;45216;-62
2021/11/10 04:48:02;;;;;;;;;60.75;46.50;;;;;5.84;83.71;102057.19;5060589;28;47358;-64
2021/11/10 04:50:28;;;;;;;;;60.50;48.25;;;;;5.84;84.19;102070.94;5060541;28;45588;-64
2021/11/10 04:52:53;;;;;;;;;61.50;50.00;;;;;5.83;84.70;102082.13;5058520;28;45519;-64
2021/11/10 04:55:19;;;;;;;;;66.25;50.75;;;;;5.84;84.22;102078.69;5056115;28;45288;-63
2021/11/10 04:57:45;;;;;;;;;67.00;50.75;;;;;5.86;84.50;102073.56;5060429;28;46268;-64
2021/11/10 05:00:13;;;;;;;;;69.50;53.00;;;;;5.86;83.82;102083.88;5060045;28;45326;-63
2021/11/10 05:02:39;;;;;;;;;46.25;40.25;;;;;5.86;83.60;102073.56;5060505;28;45244;-64
2021/11/10 05:05:06;;;;;;;;;62.75;48.00;;;;;5.83;83.18;102068.34;5059944;28;45470;-64
2021/11/10 05:07:32;;;;;;;;;61.00;46.50;;;;;5.72;82.96;102034.66;5060243;28;45294;-61
2021/11/10 05:09:58;;;;;;;;;66.00;49.00;;;;;5.72;82.93;102044.97;5060009;28;45401;-61
2021/11/10 05:12:24;;;;;;;;;56.75;46.75;;;;;5.66;83.21;102042.34;5059495;28;45272;-63
2021/11/10 05:14:52;;;;;;;;;57.75;46.00;;;;;5.59;83.36;102038.78;5059791;28;45308;-64
2021/11/10 05:17:20;;;;;;;;;59.75;43.25;;;;;5.58;83.03;102034.47;5059950;28;46131;-64
2021/11/10 05:19:46;;;;;;;;;53.75;48.00;;;;;5.54;83.67;102027.53;5059314;28;45339;-62
2021/11/10 05:22:12;;;;;;;;;55.50;46.25;;;;;5.53;83.76;102019.78;5060240;28;45410;-64
2021/11/10 05:24:37;;;;;;;;;62.75;47.25;;;;;5.47;83.26;102013.72;5047832;28;45315;-61
2021/11/10 05:27:03;;;;;;;;;52.00;44.25;;;;;5.47;83.76;102018.88;5059758;28;46516;-64
2021/11/10 05:29:29;;;;;;;;;46.25;41.75;;;;;5.44;83.31;102020.53;5059731;28;45315;-63
2021/11/10 05:31:54;;;;;;;;;55.25;44.00;;;;;5.39;83.22;102028.19;5059698;28;45318;-60
2021/11/10 05:34:19;;;;;;;;;63.25;48.25;;;;;5.38;83.09;102033.31;5059831;28;45319;-59
2021/11/10 05:36:45;;;;;;;;;56.50;42.75;;;;;5.32;83.77;102022.94;5058482;28;46002;-58
2021/11/10 05:39:10;;;;;;;;;48.50;41.75;;;;;5.27;84.13;102017.72;5059424;28;45246;-59
2021/11/10 05:41:36;;;;;;;;;59.50;44.25;;;;;5.23;85.25;102017.66;5069187;28;45304;-59
2021/11/10 05:44:01;;;;;;;;;55.50;46.75;;;;;5.13;85.62;102006.34;5060005;28;45474;-63
2021/11/10 05:46:27;;;;;;;;;55.50;43.50;;;;;5.11;85.23;102008.88;5057854;28;46283;-62
2021/11/10 05:48:52;;;;;;;;;60.00;44.50;;;;;5.08;85.27;102007.97;5059321;28;45430;-62
2021/11/10 05:51:18;;;;;;;;;55.75;47.25;;;;;5.01;86.70;102006.16;5059092;28;45684;-60
2021/11/10 05:53:44;;;;;;;;;57.00;45.00;;;;;4.98;85.94;102001.81;5050155;28;45521;-60
2021/11/10 05:56:18;;;;;;;;;58.00;44.00;;;;;5.01;85.46;102001.88;5056704;28;45413;-60
2021/11/10 05:58:44;;;;;;;;;46.75;40.75;;;;;5.02;85.71;101992.44;5056750;28;45598;-61
2021/11/10 06:01:09;;;;;;;;;59.00;47.00;;;;;5.02;85.29;101989.88;5056825;28;45367;-62
2021/11/10 06:03:35;;;;;;;;;53.00;42.75;;;;;5.03;85.93;101995.03;5056567;28;45556;-59
2021/11/10 06:06:00;;;;;;;;;59.50;45.00;;;;;5.05;85.42;102021.69;5056135;28;45945;-60
2021/11/10 06:08:26;;;;;;;;;52.75;45.00;;;;;5.06;85.40;102031.16;5057219;28;45348;-61
2021/11/10 06:10:51;;;;;;;;;58.00;45.50;;;;;5.07;85.33;102030.31;5059107;28;45300;-62
2021/11/10 06:13:16;;;;;;;;;55.33;44.00;;;;;5.09;85.94;102036.34;5058977;28;45381;-61
2021/11/10 06:15:42;;;;;;;;;55.00;44.00;;;;;5.13;85.81;102055.28;5058187;28;46139;-60
2021/11/10 06:18:08;;;;;;;;;62.50;46.50;;;;;5.14;86.35;102055.31;5058105;28;45347;-60
2021/11/10 06:20:35;;;;;;;;;62.75;48.25;;;;;5.17;86.34;102062.22;5058807;28;45479;-60
2021/11/10 06:23:02;;;;;;;;;56.25;44.75;;;;;5.21;86.10;102071.75;5056576;28;45284;-60
2021/11/10 06:25:27;;;;;;;;;60.75;44.25;;;;;5.22;85.59;102073.50;5050368;28;46279;-60
2021/11/10 06:27:53;;;;;;;;;64.75;48.25;;;;;5.26;86.41;102079.56;5061791;28;45344;-61
2021/11/10 06:30:19;;;;;;;;;55.75;44.25;;;;;5.27;86.02;102065.81;5062230;28;45359;-64
2021/11/10 06:32:45;;;;;;;;;63.50;47.50;;;;;5.28;85.93;102072.72;5061410;28;45162;-61
2021/11/10 06:35:11;;;;;;;;;62.75;48.00;;;;;5.27;85.63;102086.44;5059836;28;45528;-61
2021/11/10 06:37:36;;;;;;;;;55.50;44.75;;;;;5.28;86.01;102088.16;5061282;28;45558;-61
2021/11/10 06:40:03;;;;;;;;;67.75;50.00;;;;;5.32;86.00;102095.97;5062289;28;45269;-60
2021/11/10 06:42:29;;;;;;;;;59.25;47.25;;;;;5.34;85.32;102104.59;5073380;28;45306;-60
2021/11/10 06:44:55;;;;;;;;;60.50;48.75;;;;;5.33;86.13;102105.44;5059872;28;45325;-60
2021/11/10 06:47:21;;;;;;;;;52.25;43.75;;;;;5.33;85.91;102105.44;5060146;28;45279;-60
2021/11/10 06:49:47;;;;;;;;;66.25;46.25;;;;;5.37;85.63;102112.38;5062181;28;46621;-60
2021/11/10 06:52:12;;;;;;;;;55.50;44.25;;;;;5.36;85.45;102117.50;5061913;28;45300;-60
2021/11/10 06:54:37;;;;;;;;;66.25;48.50;;;;;5.34;85.40;102130.38;5055641;28;45219;-60
2021/11/10 06:57:03;;;;;;;;;53.25;45.00;;;;;5.35;84.92;102144.13;5059876;28;45440;-61
2021/11/10 06:59:29;;;;;;;;;57.75;48.00;;;;;5.37;84.69;102143.31;5061216;28;45539;-62
2021/11/10 07:01:54;;;;;;;;;65.50;48.50;;;;;5.38;85.78;102151.91;5061103;28;45346;-62
2021/11/10 07:04:20;;;;;;;;;61.25;45.25;;;;;5.40;85.98;102169.13;5061771;28;46256;-61
2021/11/10 07:06:46;;;;;;;;;60.75;46.75;;;;;5.42;85.65;102169.19;5061477;28;45331;-63
2021/11/10 07:09:11;;;;;;;;;53.00;45.00;;;;;5.44;85.38;102172.66;5061469;28;45296;-60
2021/11/10 07:11:37;;;;;;;;;57.75;45.75;;;;;5.46;85.49;102160.66;5061109;28;45235;-63
2021/11/10 07:14:03;;;;;;;;;67.75;52.75;;;;;5.46;84.91;102155.50;5056776;28;47306;-60
2021/11/10 07:16:29;;;;;;;;;64.25;50.50;;;;;5.48;84.99;102153.81;5057918;28;45739;-62
2021/11/10 07:18:55;;;;;;;;;57.00;42.50;;;;;5.51;85.03;102159.00;5060548;28;45528;-62
2021/11/10 07:21:20;;;;;;;;;61.25;50.25;;;;;5.47;85.05;102140.03;5061618;28;45406;-62
2021/11/10 07:23:45;;;;;;;;;67.50;50.75;;;;;5.47;84.19;102140.03;5051906;28;45973;-63
2021/11/10 07:26:11;;;;;;;;;67.25;50.00;;;;;5.47;84.83;102136.59;5055670;28;45261;-61
2021/11/10 07:28:36;;;;;;;;;69.75;49.25;;;;;5.47;84.55;102134.88;5060252;28;45481;-62
2021/11/10 07:31:02;;;;;;;;;62.75;48.25;;;;;5.46;84.17;102134.88;5060111;28;45272;-62
2021/11/10 07:33:27;;;;;;;;;66.00;49.00;;;;;5.41;84.11;102142.53;5060844;28;46056;-59
2021/11/10 07:35:52;;;;;;;;;60.50;45.75;;;;;5.41;84.82;102151.97;5059160;28;45429;-61
2021/11/10 07:38:23;;;;;;;;;72.00;52.00;;;;;5.37;84.39;102143.31;5049992;28;45489;-60
2021/11/10 07:40:49;;;;;;;;;46.50;38.75;;;;;5.35;84.03;102136.38;5062380;28;45615;-60
2021/11/10 07:43:14;;;;;;;;;65.00;52.00;;;;;5.38;84.94;102136.44;5069379;28;47009;-60
2021/11/10 07:45:43;;;;;;;;;61.50;50.50;;;;;5.36;84.42;102138.13;5057761;28;45298;-64
2021/11/10 07:48:09;;;;;;;;;61.75;48.75;;;;;5.41;83.84;102131.34;5061543;28;45294;-60
2021/11/10 07:50:36;;;;;;;;;63.25;48.50;;;;;5.45;84.26;102125.41;5060288;28;45418;-61
2021/11/10 07:53:02;;;;;;;;;58.25;49.00;;;;;5.49;84.04;102116.88;5056552;28;46747;-60
2021/11/10 07:55:28;;;;;;;;;58.50;48.25;;;;;5.53;84.40;102126.38;5057137;28;45331;-59
2021/11/10 07:57:54;;;;;;;;;56.25;45.75;;;;;5.54;84.96;102122.94;5060703;28;45417;-60
2021/11/10 08:00:22;;;;;;;;;65.50;49.50;;;;;5.54;83.87;102114.34;5060295;28;45528;-60
2021/11/10 08:02:48;;;;;;;;;61.50;49.25;;;;;5.57;84.63;102115.25;5059696;28;45233;-60
2021/11/10 08:05:14;;;;;;;;;65.00;47.75;;;;;5.60;84.18;102104.13;5057735;28;45370;-60
2021/11/10 08:07:40;;;;;;;;;63.50;48.75;;;;;5.63;84.39;102101.59;5060887;28;45232;-66
2021/11/10 08:10:07;;;;;;;;;57.25;46.00;;;;;5.67;84.06;102111.13;5060402;28;45465;-65
2021/11/10 08:12:36;;;;;;;;;65.00;43.75;;;;;5.66;83.72;102112.84;5060618;28;45514;-67
2021/11/10 08:15:09;;;;;;;;;53.25;43.25;;;;;5.73;83.92;102127.53;5055788;28;45871;-65
2021/11/10 08:17:37;;;;;;;;;58.75;46.75;;;;;5.80;83.68;102126.78;5054253;28;45305;-66
2021/11/10 08:20:08;;;;;;;;;53.00;44.00;;;;;5.84;83.35;102127.72;5055372;28;45438;-68
2021/11/10 08:22:34;;;;;;;;;60.75;46.00;;;;;5.83;83.65;102133.72;5054954;28;45435;-67
2021/11/10 08:25:00;;;;;;;;;60.00;46.25;;;;;5.84;84.15;102143.19;5049528;28;45727;-67
2021/11/10 08:27:26;;;;;;;;;61.25;45.75;;;;;5.88;83.81;102144.97;5060586;28;45216;-68
2021/11/10 08:29:51;;;;;;;;;70.75;50.75;;;;;5.96;84.16;102153.69;5060235;28;45375;-65
2021/11/10 08:32:18;;;;;;;;;68.75;51.50;;;;;6.06;84.13;102146.97;5059276;28;45432;-62
2021/11/10 08:34:43;;;;;;;;;63.50;49.25;;;;;6.15;83.66;102149.66;5060676;28;45196;-68
2021/11/10 08:37:08;;;;;;;;;53.75;44.50;;;;;6.23;83.58;102153.22;5060205;28;45275;-61
2021/11/10 08:39:34;;;;;;;;;62.00;48.25;;;;;6.34;83.77;102167.13;5059773;28;45437;-61
2021/11/10 08:42:01;;;;;;;;;64.50;53.00;;;;;6.44;83.51;102159.50;5071202;28;45428;-61
2021/11/10 08:44:27;;;;;;;;;60.25;47.00;;;;;6.54;83.24;102153.59;5058845;28;45260;-61
2021/11/10 08:46:56;;;;;;;;;64.50;49.50;;;;;6.61;83.29;102147.66;5057318;28;45364;-61
2021/11/10 08:49:22;;;;;;;;;64.75;50.00;;;;;6.68;83.03;102146.88;5058757;28;45178;-62
2021/11/10 08:51:47;;;;;;;;;66.25;51.75;;;;;6.75;82.69;102133.16;5059845;28;45379;-62
2021/11/10 08:54:13;;;;;;;;;67.25;49.75;;;;;6.96;82.04;102146.28;5053757;28;45255;-62
2021/11/10 08:56:38;;;;;;;;;65.25;50.50;;;;;7.08;82.02;102155.03;5053341;28;45434;-62
2021/11/10 08:59:04;;;;;;;;;66.00;52.75;;;;;7.21;82.02;102150.00;5059678;28;45543;-61
2021/11/10 09:01:30;;;;;;;;;63.50;48.50;;;;;7.35;81.41;102152.69;5059502;28;45420;-68
2021/11/10 09:03:56;;;;;;;;;67.25;51.75;;;;;7.45;81.64;102154.50;5059628;28;45465;-64
2021/11/10 09:06:21;;;;;;;;;68.75;53.25;;;;;7.53;81.34;102157.16;5059679;28;45380;-60
2021/11/10 09:08:47;;;;;;;;;58.50;47.00;;;;;7.67;81.13;102162.44;5059729;28;45496;-60
2021/11/10 09:11:12;;;;;;;;;72.50;56.25;;;;;7.72;80.61;102159.00;5059769;28;45973;-61
2021/11/10 09:13:38;;;;;;;;;66.25;50.75;;;;;7.83;80.84;102164.28;5059993;28;45367;-59
2021/11/10 09:16:04;;;;;;;;;68.00;52.50;;;;;7.97;80.56;102165.22;5059718;28;45349;-61
2021/11/10 09:18:29;;;;;;;;;64.50;51.50;;;;;8.12;79.75;102157.53;5059165;28;45457;-60
2021/11/10 09:20:55;;;;;;;;;68.75;53.75;;;;;8.21;79.84;102139.47;5059859;28;45441;-71
2021/11/10 09:23:21;;;;;;;;;62.25;50.25;;;;;8.33;78.54;102135.19;5055377;28;45469;-64
2021/11/10 09:25:48;;;;;;;;;73.50;55.25;;;;;8.47;79.92;102134.44;5051608;28;45222;-62
2021/11/10 09:28:17;;;;;;;;;66.50;52.00;;;;;8.69;79.82;102129.31;5059292;28;45398;-62
2021/11/10 09:30:44;;;;;;;;;59.00;46.25;;;;;9.10;78.94;102126.78;5057975;28;48448;-62
2021/11/10 09:33:15;;;;;;;;;63.50;50.50;;;;;10.07;78.00;102107.63;5059613;28;45307;-63
2021/11/10 09:35:42;;;;;;;;;64.25;51.75;;;;;10.94;76.32;102118.47;5057823;28;45418;-63
2021/11/10 09:38:08;;;;;;;;;66.75;52.50;;;;;11.59;73.23;102116.19;5052633;28;45303;-63
2021/11/10 09:40:36;;;;;;;;;68.25;52.75;;;;;11.96;71.73;102119.31;5053006;28;46129;-64
2021/11/10 09:43:03;;;;;;;;;66.50;49.00;;;;;12.05;70.96;102116.63;5059621;28;45721;-63
2021/11/10 09:45:33;;;;;;;;;71.00;51.50;;;;;11.86;70.40;102128.97;5056371;28;45146;-62
2021/11/10 09:48:00;;;;;;;;;63.75;50.25;;;;;11.66;70.12;102125.69;5059489;28;45423;-61
2021/11/10 09:50:28;;;;;;;;;65.25;49.50;;;;;11.48;70.32;102141.47;5059257;28;45974;-61
2021/11/10 09:52:56;;;;;;;;;38.75;29.00;;;;;11.35;70.69;102142.44;5057267;28;45285;-61
2021/11/10 09:55:24;;;;;;;;;60.00;45.50;;;;;11.26;70.88;102144.25;5055240;28;45276;-61
2021/11/10 09:57:51;;;;;;;;;73.00;51.75;;;;;11.44;71.48;102150.19;5059334;28;45397;-63
2021/11/10 10:00:21;;;;;;;;;63.25;50.75;;;;;12.65;70.54;102154.97;5058524;28;45477;-63
2021/11/10 10:02:48;;;;;;;;;65.50;51.00;;;;;13.40;68.75;102158.19;5059209;28;45386;-63
2021/11/10 10:05:19;;;;;;;;;53.00;45.25;;;;;13.90;67.29;102158.22;5058050;28;45315;-63
2021/11/10 10:07:49;;;;;;;;;66.75;52.00;;;;;14.11;65.91;102151.72;5059319;28;45421;-63
2021/11/10 10:10:14;;;;;;;;;66.75;49.50;;;;;14.28;65.37;102157.47;5058618;28;45787;-60
2021/11/10 10:12:41;;;;;;;;;66.50;49.25;;;;;15.30;60.59;102160.44;5058903;28;45280;-60
2021/11/10 10:15:09;;;;;;;;;66.75;50.50;;;;;15.39;61.90;102165.44;5058706;28;45507;-60
2021/11/10 10:17:34;;;;;;;;;64.75;50.25;;;;;15.15;61.13;102168.66;5059339;28;45474;-60
2021/11/10 10:20:00;;;;;;;;;71.00;54.33;;;;;14.85;61.83;102168.50;5058254;28;46233;-59
2021/11/10 10:22:25;;;;;;;;;66.75;50.75;;;;;15.39;61.29;102173.31;5059397;28;45438;-61
2021/11/10 10:24:55;;;;;;;;;62.75;49.00;;;;;15.82;60.24;102170.50;5046988;28;45338;-61
2021/11/10 10:27:29;;;;;;;;;64.25;49.75;;;;;16.18;60.30;102164.28;5059074;28;45385;-61
2021/11/10 10:30:25;;;;;;;;;70.75;54.50;;;;;16.10;59.39;102170.63;5046354;28;46624;-63
2021/11/10 10:33:12;;;;;;;;;75.00;56.25;;;;;17.14;61.00;102167.53;5053561;28;45412;-65
2021/11/10 10:35:42;;;;;;;;;64.50;48.00;;;;;18.13;57.68;102160.69;5057361;28;45442;-65
2021/11/10 10:38:11;;;;;;;;;64.50;48.75;;;;;17.74;55.61;102139.28;5058057;28;45360;-64
2021/11/10 10:40:40;;;;;;;;;65.00;50.75;;;;;17.25;55.85;102154.06;5058449;28;46375;-65
2021/11/10 10:43:05;;;;;;;;;60.75;47.50;;;;;16.76;55.28;102136.38;5067106;28;45858;-65
2021/11/10 10:45:35;;;;;;;;;62.25;47.50;;;;;16.03;55.63;102131.50;5055586;28;45466;-66
2021/11/10 10:48:12;;;;;;;;;64.50;50.00;;;;;15.57;56.40;102129.22;5050746;28;45275;-66
2021/11/10 10:50:48;;;;;;;;;65.50;50.00;;;;;15.26;57.41;102127.38;5052652;28;45401;-65
2021/11/10 10:53:36;;;;;;;;;65.00;50.25;;;;;15.73;58.70;102122.69;5053212;28;45738;-66
2021/11/10 10:56:13;;;;;;;;;64.25;49.50;;;;;18.76;56.51;102114.44;5046526;28;45434;-65
2021/11/10 10:58:39;;;;;;;;;61.75;48.25;;;;;19.27;51.42;102105.34;5058161;28;45303;-65
2021/11/10 11:01:26;;;;;;;;;64.25;49.50;;;;;18.27;48.24;102116.31;5057957;28;45408;-64
2021/11/10 11:04:05;;;;;;;;;64.75;50.50;;;;;17.24;50.48;102116.44;5057787;28;45294;-64
2021/11/10 11:06:50;;;;;;;;;65.75;51.00;;;;;17.94;52.81;102103.47;5057890;28;45406;-63
2021/11/10 11:09:26;;;;;;;;;66.25;51.50;;;;;18.80;50.67;102098.44;5057653;28;45465;-63
2021/11/10 11:12:04;;;;;;;;;63.75;49.00;;;;;18.16;48.05;102097.41;5058727;28;46710;-64
2021/11/10 11:14:38;;;;;;;;;62.75;47.25;;;;;17.70;50.47;102101.72;5060942;28;45311;-63
2021/11/10 11:17:26;;;;;;;;;53.50;43.75;;;;;18.07;51.69;102100.41;5056068;28;45484;-61